createdAt,value
2022-10-30T00:00:39.484Z,18.15
2022-10-30T00:03:06.034Z,22.10
2022-10-30T00:05:32.432Z,19.27
2022-10-30T00:07:59.154Z,18.75
2022-10-30T00:10:25.825Z,16.33
2022-10-30T00:12:52.175Z,20.23
2022-10-30T00:15:18.576Z,20.85
2022-10-30T00:17:44.964Z,20.83
2022-10-30T00:20:11.366Z,18.00
2022-10-30T00:22:38.045Z,23.02
2022-10-30T00:25:05.066Z,18.95
2022-10-30T00:27:31.434Z,19.38
2022-10-30T00:29:59.086Z,27.95
2022-10-30T00:32:25.456Z,22.48
2022-10-30T00:34:51.835Z,18.00
2022-10-30T00:37:18.266Z,17.08
2022-10-30T00:39:44.648Z,23.48
2022-10-30T00:42:14.960Z,20.42
2022-10-30T00:44:44.416Z,19.55
2022-10-30T00:47:12.887Z,17.33
2022-10-30T00:49:45.504Z,20.40
2022-10-30T00:52:11.887Z,21.73
2022-10-30T00:54:38.348Z,21.42
2022-10-30T00:57:06.861Z,17.98
2022-10-30T00:59:34.463Z,24.00
2022-10-30T01:02:01.461Z,19.40
2022-10-30T01:04:30.234Z,20.00
2022-10-30T01:06:57.538Z,17.48
2022-10-30T01:09:24.337Z,18.40
2022-10-30T01:11:50.738Z,23.40
2022-10-30T01:14:19.638Z,21.13
2022-10-30T01:16:57.516Z,20.80
2022-10-30T01:19:23.946Z,18.83
2022-10-30T01:21:58.540Z,15.23
2022-10-30T01:24:39.974Z,15.55
2022-10-30T01:27:09.338Z,23.17
2022-10-30T01:29:44.782Z,20.85
2022-10-30T01:32:30.076Z,19.58
2022-10-30T01:35:06.443Z,23.97
2022-10-30T01:37:34.689Z,17.40
2022-10-30T01:40:05.618Z,23.38
2022-10-30T01:42:44.152Z,19.52
2022-10-30T01:45:33.818Z,18.67
2022-10-30T01:48:18.976Z,21.10
2022-10-30T01:50:45.364Z,15.87
2022-10-30T01:53:18.398Z,18.73
2022-10-30T01:56:05.023Z,18.55
2022-10-30T01:58:34.538Z,26.40
2022-10-30T02:01:01.086Z,19.83
2022-10-30T02:03:28.682Z,13.93
2022-10-30T02:05:55.159Z,18.52
2022-10-30T02:08:22.332Z,14.48
2022-10-30T02:10:49.658Z,20.90
2022-10-30T02:13:16.146Z,13.77
2022-10-30T02:15:43.590Z,13.43
2022-10-30T02:18:10.822Z,17.42
2022-10-30T02:20:37.512Z,16.55
2022-10-30T02:23:04.538Z,18.50
2022-10-30T02:25:31.108Z,13.70
2022-10-30T02:27:57.487Z,19.10
2022-10-30T02:30:23.883Z,11.65
2022-10-30T02:32:50.308Z,16.02
2022-10-30T02:35:16.814Z,19.55
2022-10-30T02:37:43.199Z,13.45
2022-10-30T02:40:09.845Z,24.23
2022-10-30T02:42:36.292Z,17.92
2022-10-30T02:45:02.627Z,12.68
2022-10-30T02:47:29.074Z,12.48
2022-10-30T02:49:55.424Z,10.80
2022-10-30T02:52:21.758Z,18.27
2022-10-30T02:54:48.135Z,12.77
2022-10-30T02:57:14.466Z,10.38
2022-10-30T02:59:40.776Z,15.07
2022-10-30T03:02:07.265Z,17.92
2022-10-30T03:04:33.577Z,16.05
2022-10-30T03:06:59.874Z,14.45
2022-10-30T03:09:26.209Z,12.88
2022-10-30T03:11:52.615Z,13.90
2022-10-30T03:14:18.931Z,14.25
2022-10-30T03:16:45.305Z,12.27
2022-10-30T03:19:11.695Z,9.73
2022-10-30T03:21:38.047Z,14.20
2022-10-30T03:24:04.535Z,18.50
2022-10-30T03:26:30.934Z,14.88
2022-10-30T03:28:57.270Z,12.90
2022-10-30T03:31:23.623Z,15.25
2022-10-30T03:33:49.951Z,17.75
2022-10-30T03:36:16.492Z,12.60
2022-10-30T03:38:43.063Z,14.40
2022-10-30T03:41:09.777Z,22.95
2022-10-30T03:43:36.105Z,13.00
2022-10-30T03:46:02.517Z,18.95
2022-10-30T03:48:29.517Z,16.70
2022-10-30T03:50:56.894Z,13.18
2022-10-30T03:53:24.031Z,12.68
2022-10-30T03:55:50.911Z,14.45
2022-10-30T03:58:17.329Z,15.30
2022-10-30T04:00:43.645Z,13.60
2022-10-30T04:03:10.204Z,11.88
2022-10-30T04:05:37.034Z,11.05
2022-10-30T04:08:04.714Z,15.73
2022-10-30T04:10:31.454Z,11.75
2022-10-30T04:13:01.508Z,21.08
2022-10-30T04:15:27.944Z,12.73
2022-10-30T04:17:54.380Z,20.42
2022-10-30T04:20:21.626Z,15.88
2022-10-30T04:22:48.110Z,13.00
2022-10-30T04:25:14.593Z,14.13
2022-10-30T04:27:44.324Z,8.93
2022-10-30T04:30:11.925Z,12.88
2022-10-30T04:32:51.603Z,10.20
2022-10-30T04:35:19.435Z,13.05
2022-10-30T04:37:52.614Z,14.73
2022-10-30T04:40:18.948Z,17.73
2022-10-30T04:42:48.464Z,13.65
2022-10-30T04:45:15.360Z,9.55
2022-10-30T04:47:41.904Z,10.40
2022-10-30T04:50:08.805Z,12.57
2022-10-30T04:52:35.145Z,13.98
2022-10-30T04:55:01.878Z,11.82
2022-10-30T04:57:28.271Z,15.80
2022-10-30T04:59:54.585Z,17.48
2022-10-30T05:02:21.042Z,20.15
2022-10-30T05:04:47.485Z,11.00
2022-10-30T05:07:14.133Z,10.55
2022-10-30T05:09:40.514Z,12.13
2022-10-30T05:12:06.997Z,10.55
2022-10-30T05:14:33.784Z,23.88
2022-10-30T05:17:00.103Z,16.70
2022-10-30T05:19:26.659Z,8.50
2022-10-30T05:21:55.776Z,14.05
2022-10-30T05:24:24.572Z,9.05
2022-10-30T05:26:50.904Z,14.90
2022-10-30T05:29:17.196Z,11.70
2022-10-30T05:31:43.544Z,11.93
2022-10-30T05:34:09.855Z,15.50
2022-10-30T05:36:36.222Z,12.25
2022-10-30T05:39:03.013Z,14.05
2022-10-30T05:41:29.484Z,12.40
2022-10-30T05:43:56.313Z,14.43
2022-10-30T05:46:22.605Z,13.27
2022-10-30T05:48:48.985Z,13.90
2022-10-30T05:51:15.363Z,14.18
2022-10-30T05:53:41.689Z,13.90
2022-10-30T05:56:08.076Z,11.52
2022-10-30T05:58:34.440Z,11.38
2022-10-30T06:01:05.502Z,17.33
2022-10-30T06:03:31.835Z,8.25
2022-10-30T06:06:00.633Z,17.23
2022-10-30T06:08:27.043Z,11.65
2022-10-30T06:10:54.440Z,10.32
2022-10-30T06:13:23.936Z,16.45
2022-10-30T06:15:50.403Z,11.30
2022-10-30T06:18:16.839Z,11.55
2022-10-30T06:20:43.214Z,16.65
2022-10-30T06:23:10.272Z,11.55
2022-10-30T06:25:40.986Z,16.13
2022-10-30T06:28:07.828Z,16.13
2022-10-30T06:30:34.187Z,16.85
2022-10-30T06:33:01.832Z,8.65
2022-10-30T06:35:28.826Z,14.68
2022-10-30T06:37:56.255Z,10.00
2022-10-30T06:40:22.951Z,10.48
2022-10-30T06:42:50.400Z,10.15
2022-10-30T06:45:17.378Z,11.07
2022-10-30T06:47:44.035Z,11.98
2022-10-30T06:50:14.608Z,13.88
2022-10-30T06:52:41.074Z,14.13
2022-10-30T06:55:07.773Z,14.90
2022-10-30T06:57:34.099Z,17.05
2022-10-30T07:00:00.399Z,11.88
2022-10-30T07:02:27.067Z,10.68
2022-10-30T07:04:53.454Z,16.05
2022-10-30T07:07:19.887Z,17.27
2022-10-30T07:09:49.213Z,16.67
2022-10-30T07:12:15.719Z,12.48
2022-10-30T07:14:42.179Z,10.68
2022-10-30T07:17:08.818Z,16.67
2022-10-30T07:19:35.216Z,12.43
2022-10-30T07:22:02.212Z,11.75
2022-10-30T07:24:28.673Z,10.90
2022-10-30T07:26:55.326Z,9.85
2022-10-30T07:29:21.770Z,7.65
2022-10-30T07:32:02.282Z,14.75
2022-10-30T07:34:29.495Z,8.93
2022-10-30T07:36:55.823Z,16.45
2022-10-30T07:39:22.300Z,13.95
2022-10-30T07:41:50.397Z,14.77
2022-10-30T07:44:16.939Z,12.98
2022-10-30T07:46:43.357Z,15.02
2022-10-30T07:49:09.741Z,15.77
2022-10-30T07:51:36.025Z,9.48
2022-10-30T07:54:02.356Z,12.02
2022-10-30T07:56:28.733Z,20.45
2022-10-30T07:58:55.116Z,39.28
2022-10-30T08:01:21.539Z,33.88
2022-10-30T08:03:48.024Z,38.08
2022-10-30T08:06:14.349Z,35.85
2022-10-30T08:08:43.497Z,43.72
2022-10-30T08:11:10.063Z,30.75
2022-10-30T08:13:36.361Z,25.65
2022-10-30T08:16:02.777Z,14.65
2022-10-30T08:18:29.128Z,12.18
2022-10-30T08:20:55.506Z,11.93
2022-10-30T08:23:22.111Z,11.82
2022-10-30T08:25:48.489Z,13.95
2022-10-30T08:28:14.871Z,7.38
2022-10-30T08:30:41.277Z,11.65
2022-10-30T08:33:10.491Z,9.93
2022-10-30T08:38:08.227Z,12.50
2022-10-30T08:40:34.616Z,13.27
2022-10-30T08:43:00.955Z,9.90
2022-10-30T08:45:30.894Z,8.68
2022-10-30T08:47:58.985Z,14.65
2022-10-30T08:50:25.737Z,12.35
2022-10-30T08:52:54.686Z,8.55
2022-10-30T08:55:21.258Z,14.20
2022-10-30T08:57:47.738Z,16.92
2022-10-30T09:00:14.242Z,12.35
2022-10-30T09:02:40.663Z,16.42
2022-10-30T09:05:07.726Z,10.43
2022-10-30T09:07:34.102Z,13.85
2022-10-30T09:10:00.492Z,13.68
2022-10-30T09:12:26.959Z,15.57
2022-10-30T09:14:56.352Z,20.65
2022-10-30T09:17:22.902Z,30.45
2022-10-30T09:19:49.348Z,31.08
2022-10-30T09:22:15.760Z,29.45
2022-10-30T09:24:42.079Z,29.10
2022-10-30T09:27:08.487Z,26.73
2022-10-30T09:29:35.587Z,36.80
2022-10-30T09:32:02.136Z,12.75
2022-10-30T09:34:29.096Z,13.52
2022-10-30T09:36:55.474Z,11.38
2022-10-30T09:39:21.909Z,15.48
2022-10-30T09:41:54.237Z,14.73
2022-10-30T09:44:39.378Z,15.80
2022-10-30T09:47:24.644Z,13.65
2022-10-30T09:49:54.065Z,13.05
2022-10-30T09:52:28.473Z,13.20
2022-10-30T09:55:01.397Z,13.57
2022-10-30T09:57:46.534Z,9.07
2022-10-30T10:00:14.654Z,12.55
2022-10-30T10:02:53.313Z,14.30
2022-10-30T10:05:31.886Z,9.15
2022-10-30T10:08:01.044Z,15.18
2022-10-30T10:10:42.324Z,9.25
2022-10-30T10:13:15.551Z,10.07
2022-10-30T10:15:46.874Z,10.18
2022-10-30T10:18:22.478Z,9.65
2022-10-30T10:20:51.573Z,12.15
2022-10-30T10:23:19.456Z,15.25
2022-10-30T10:26:08.846Z,9.80
2022-10-30T10:28:41.123Z,10.30
2022-10-30T10:31:07.419Z,14.15
2022-10-30T10:33:42.952Z,12.30
2022-10-30T10:36:17.672Z,18.88
2022-10-30T10:39:02.858Z,8.60
2022-10-30T10:41:31.924Z,19.58
2022-10-30T10:44:04.425Z,16.08
2022-10-30T10:46:51.041Z,14.52
2022-10-30T10:49:29.679Z,10.48
2022-10-30T10:52:03.906Z,18.48
2022-10-30T10:54:36.525Z,15.02
2022-10-30T10:57:05.160Z,16.05
2022-10-30T10:59:31.452Z,13.23
2022-10-30T11:02:13.595Z,10.98
2022-10-30T11:04:41.242Z,13.00
2022-10-30T11:07:13.470Z,12.25
2022-10-30T11:09:40.566Z,9.55
2022-10-30T11:12:06.935Z,12.50
2022-10-30T11:14:33.232Z,11.98
2022-10-30T11:17:02.470Z,13.73
2022-10-30T11:19:30.173Z,13.73
2022-10-30T11:21:57.605Z,13.60
2022-10-30T11:24:27.300Z,13.32
2022-10-30T11:26:53.976Z,12.48
2022-10-30T11:29:24.242Z,18.40
2022-10-30T11:32:06.935Z,17.73
2022-10-30T11:34:36.777Z,12.00
2022-10-30T11:37:04.194Z,16.20
2022-10-30T11:39:31.748Z,22.55
2022-10-30T11:41:58.109Z,13.70
2022-10-30T11:44:26.673Z,16.70
2022-10-30T11:46:53.255Z,12.40
2022-10-30T11:49:27.336Z,17.80
2022-10-30T11:51:53.956Z,11.20
2022-10-30T11:54:21.441Z,11.07
2022-10-30T11:56:51.373Z,11.45
2022-10-30T11:59:19.089Z,9.88
2022-10-30T12:01:59.491Z,13.48
2022-10-30T12:04:27.719Z,15.75
2022-10-30T12:07:07.199Z,10.93
2022-10-30T12:09:41.284Z,16.67
2022-10-30T12:12:22.462Z,16.65
2022-10-30T12:14:48.896Z,15.40
2022-10-30T12:17:16.165Z,15.27
2022-10-30T12:19:47.044Z,17.65
2022-10-30T12:22:23.711Z,15.40
2022-10-30T12:24:50.130Z,12.63
2022-10-30T12:27:21.380Z,13.32
2022-10-30T12:30:08.712Z,12.13
2022-10-30T12:32:42.045Z,9.70
2022-10-30T12:35:20.517Z,13.40
2022-10-30T12:37:48.086Z,15.18
2022-10-30T12:40:20.326Z,10.20
2022-10-30T12:43:06.965Z,13.85
2022-10-30T12:45:44.230Z,15.73
2022-10-30T12:48:13.425Z,14.52
2022-10-30T12:50:46.534Z,12.75
2022-10-30T12:53:18.622Z,16.25
2022-10-30T12:55:49.660Z,14.65
2022-10-30T12:58:22.189Z,15.85
2022-10-30T13:01:11.769Z,12.57
2022-10-30T13:03:53.163Z,21.05
2022-10-30T13:06:23.695Z,15.30
2022-10-30T13:08:52.991Z,15.65
2022-10-30T13:11:37.972Z,14.63
2022-10-30T13:14:05.774Z,14.60
2022-10-30T13:16:32.197Z,22.25
2022-10-30T13:19:01.969Z,14.18
2022-10-30T13:21:47.305Z,13.10
2022-10-30T13:24:32.512Z,10.65
2022-10-30T13:27:13.351Z,10.90
2022-10-30T13:29:42.407Z,13.55
2022-10-30T13:32:24.920Z,13.52
2022-10-30T13:34:51.223Z,12.30
2022-10-30T13:37:20.772Z,12.18
2022-10-30T13:40:08.973Z,21.17
2022-10-30T13:42:45.778Z,15.52
2022-10-30T13:45:21.342Z,10.82
2022-10-30T13:48:02.911Z,11.77
2022-10-30T13:50:29.316Z,14.50
2022-10-30T13:52:58.460Z,16.35
2022-10-30T13:55:30.157Z,20.73
2022-10-30T13:58:16.004Z,10.65
2022-10-30T14:00:51.625Z,12.93
2022-10-30T14:10:53.326Z,12.07
2022-10-30T14:13:27.042Z,14.52
2022-10-30T14:15:59.811Z,10.20
2022-10-30T14:18:28.636Z,13.40
2022-10-30T14:20:56.680Z,12.82
2022-10-30T14:23:24.644Z,20.67
2022-10-30T14:26:06.063Z,12.25
2022-10-30T14:28:39.916Z,14.57
2022-10-30T14:31:07.729Z,12.98
2022-10-30T14:33:34.107Z,18.80
2022-10-30T14:36:19.139Z,15.88
2022-10-30T14:38:53.875Z,14.68
2022-10-30T14:41:22.962Z,11.57
2022-10-30T14:44:12.474Z,12.20
2022-10-30T14:46:45.923Z,16.52
2022-10-30T14:49:18.152Z,8.65
2022-10-30T14:52:08.066Z,10.25
2022-10-30T14:54:42.720Z,21.05
2022-10-30T14:57:22.436Z,19.17
2022-10-30T14:59:48.973Z,11.68
2022-10-30T15:02:32.408Z,17.35
2022-10-30T15:05:17.265Z,12.70
2022-10-30T15:08:16.220Z,14.55
2022-10-30T15:10:51.329Z,16.63
2022-10-30T15:13:17.596Z,14.10
2022-10-30T15:15:46.270Z,8.35
2022-10-30T15:18:17.781Z,20.75
2022-10-30T15:20:44.333Z,16.08
2022-10-30T15:23:15.852Z,15.02
2022-10-30T15:25:54.444Z,13.50
2022-10-30T15:28:22.630Z,15.20
2022-10-30T15:31:01.411Z,14.15
2022-10-30T15:33:28.468Z,21.02
2022-10-30T15:35:54.785Z,13.80
2022-10-30T15:38:21.130Z,11.98
2022-10-30T15:40:47.655Z,18.17
2022-10-30T15:43:15.867Z,17.85
2022-10-30T15:45:46.891Z,18.05
2022-10-30T15:48:24.368Z,13.25
2022-10-30T15:51:01.064Z,11.05
2022-10-30T15:53:47.840Z,14.93
2022-10-30T15:56:20.046Z,16.55
2022-10-30T15:58:51.649Z,10.38
2022-10-30T16:01:27.215Z,10.13
2022-10-30T16:06:20.337Z,13.60
2022-10-30T16:08:47.745Z,13.95
2022-10-30T16:11:14.983Z,9.95
2022-10-30T16:13:42.403Z,15.25
2022-10-30T16:18:45.009Z,11.02
2022-10-30T16:21:15.205Z,9.18
2022-10-30T16:23:46.517Z,12.82
2022-10-30T16:26:34.877Z,12.82
2022-10-30T16:29:07.538Z,24.02
2022-10-30T16:31:35.918Z,13.77
2022-10-30T16:34:03.658Z,14.80
2022-10-30T16:36:30.427Z,11.35
2022-10-30T16:38:57.199Z,15.32
2022-10-30T16:41:27.244Z,18.98
2022-10-30T16:44:09.390Z,13.65
2022-10-30T16:46:39.429Z,21.55
2022-10-30T16:49:08.917Z,17.70
2022-10-30T16:51:37.852Z,19.80
2022-10-30T16:54:04.635Z,12.63
2022-10-30T16:56:31.928Z,15.73
2022-10-30T16:59:12.269Z,14.75
2022-10-30T17:01:38.815Z,17.38
2022-10-30T17:04:05.670Z,17.83
2022-10-30T17:06:35.356Z,18.58
2022-10-30T17:09:07.792Z,19.80
2022-10-30T17:11:36.515Z,18.02
2022-10-30T17:14:06.936Z,17.83
2022-10-30T17:16:35.640Z,18.90
2022-10-30T17:19:22.036Z,17.13
2022-10-30T17:21:51.231Z,15.73
2022-10-30T17:24:22.196Z,17.33
2022-10-30T17:26:55.927Z,15.75
2022-10-30T17:29:45.759Z,17.85
2022-10-30T17:32:20.248Z,22.63
2022-10-30T17:34:46.987Z,14.98
2022-10-30T17:37:13.312Z,18.77
2022-10-30T17:39:39.662Z,16.45
2022-10-30T17:42:06.108Z,19.10
2022-10-30T17:44:34.372Z,18.00
2022-10-30T17:47:07.924Z,20.80
2022-10-30T17:49:34.538Z,26.98
2022-10-30T17:52:02.391Z,28.83
2022-10-30T17:54:28.790Z,24.63
2022-10-30T17:56:55.313Z,32.50
2022-10-30T17:59:21.633Z,29.17
2022-10-30T18:01:49.249Z,29.60
2022-10-30T18:04:20.799Z,24.38
2022-10-30T18:06:47.813Z,20.23
2022-10-30T18:09:14.248Z,29.52
2022-10-30T18:11:40.563Z,24.63
2022-10-30T18:14:07.102Z,19.08
2022-10-30T18:16:33.554Z,24.40
2022-10-30T18:18:59.971Z,23.50
2022-10-30T18:21:27.523Z,23.77
2022-10-30T18:23:54.704Z,23.63
2022-10-30T18:26:22.682Z,22.00
2022-10-30T18:28:49.016Z,23.63
2022-10-30T18:31:17.001Z,21.98
2022-10-30T18:33:43.719Z,20.90
2022-10-30T18:36:14.606Z,23.08
2022-10-30T18:38:41.017Z,24.08
2022-10-30T18:41:13.218Z,39.83
2022-10-30T18:43:43.718Z,30.95
2022-10-30T18:46:13.193Z,40.15
2022-10-30T18:48:39.967Z,50.08
2022-10-30T18:51:07.008Z,50.53
2022-10-30T18:53:35.349Z,41.03
2022-10-30T18:56:01.908Z,36.58
2022-10-30T18:58:28.194Z,43.60
2022-10-30T19:03:41.208Z,36.42
2022-10-30T19:06:21.036Z,36.70
2022-10-30T19:08:47.421Z,32.92
2022-10-30T19:11:16.554Z,36.78
2022-10-30T19:13:45.605Z,32.83
2022-10-30T19:16:15.160Z,30.75
2022-10-30T19:18:42.035Z,32.78
2022-10-30T19:21:16.047Z,32.05
2022-10-30T19:23:42.764Z,29.77
2022-10-30T19:26:09.200Z,33.95
2022-10-30T19:28:35.671Z,29.50
2022-10-30T19:31:02.064Z,32.65
2022-10-30T19:33:28.470Z,31.33
2022-10-30T19:36:01.027Z,29.63
2022-10-30T19:38:27.816Z,33.83
2022-10-30T19:40:54.315Z,32.63
2022-10-30T19:43:20.712Z,30.88
2022-10-30T19:45:49.052Z,26.48
2022-10-30T19:48:24.905Z,31.33
2022-10-30T19:50:55.779Z,29.63
2022-10-30T19:53:22.106Z,28.80
2022-10-30T19:55:49.170Z,28.95
2022-10-30T19:58:16.936Z,32.22
2022-10-30T20:00:44.764Z,32.88
2022-10-30T20:03:12.875Z,30.40
2022-10-30T20:05:45.472Z,31.48
2022-10-30T20:08:16.309Z,27.40
2022-10-30T20:10:44.115Z,31.73
2022-10-30T20:13:11.069Z,24.83
2022-10-30T20:15:37.504Z,33.22
2022-10-30T20:18:10.509Z,31.73
2022-10-30T20:20:38.632Z,31.67
2022-10-30T20:23:04.999Z,23.42
2022-10-30T20:25:31.392Z,29.63
2022-10-30T20:28:02.333Z,26.50
2022-10-30T20:30:32.186Z,34.05
2022-10-30T20:32:58.700Z,34.10
2022-10-30T20:35:25.271Z,29.88
2022-10-30T20:37:59.343Z,28.95
2022-10-30T20:40:26.162Z,37.65
2022-10-30T20:42:54.932Z,26.45
2022-10-30T20:45:24.518Z,31.55
2022-10-30T20:47:51.502Z,23.73
2022-10-30T20:50:19.366Z,34.90
2022-10-30T20:52:46.282Z,31.42
2022-10-30T20:55:13.346Z,31.38
2022-10-30T20:57:40.121Z,27.50
2022-10-30T21:00:07.437Z,24.45
2022-10-30T21:02:42.837Z,27.45
2022-10-30T21:05:17.310Z,25.40
2022-10-30T21:07:58.014Z,29.35
2022-10-30T21:10:30.177Z,30.20
2022-10-30T21:12:58.869Z,30.13
2022-10-30T21:15:27.421Z,27.85
2022-10-30T21:17:53.802Z,26.60
2022-10-30T21:20:20.239Z,25.25
2022-10-30T21:22:46.807Z,25.63
2022-10-30T21:25:13.292Z,24.55
2022-10-30T21:27:39.751Z,31.48
2022-10-30T21:30:06.488Z,27.52
2022-10-30T21:32:32.814Z,30.15
2022-10-30T21:34:59.153Z,30.05
2022-10-30T21:37:25.547Z,32.05
2022-10-30T21:39:51.851Z,28.67
2022-10-30T21:42:18.233Z,26.13
2022-10-30T21:44:44.603Z,23.77
2022-10-30T21:47:10.913Z,27.05
2022-10-30T21:49:37.354Z,30.27
2022-10-30T21:52:03.740Z,28.80
2022-10-30T21:54:30.098Z,29.90
2022-10-30T21:56:56.604Z,25.08
2022-10-30T21:59:24.117Z,24.70
2022-10-30T22:01:50.524Z,28.73
2022-10-30T22:04:17.006Z,23.45
2022-10-30T22:06:43.889Z,23.77
2022-10-30T22:09:10.291Z,24.48
2022-10-30T22:11:36.855Z,25.10
2022-10-30T22:14:04.149Z,30.77
2022-10-30T22:16:31.321Z,22.58
2022-10-30T22:18:57.816Z,25.70
2022-10-30T22:21:24.632Z,19.83
2022-10-30T22:23:50.989Z,21.88
2022-10-30T22:26:18.691Z,25.20
2022-10-30T22:28:45.369Z,19.50
2022-10-30T22:31:11.688Z,20.23
2022-10-30T22:33:38.414Z,18.20
2022-10-30T22:36:08.952Z,23.05
2022-10-30T22:38:35.497Z,19.13
2022-10-30T22:41:12.527Z,20.92
2022-10-30T22:43:39.242Z,19.83
2022-10-30T22:46:05.899Z,22.40
2022-10-30T22:48:32.504Z,25.85
2022-10-30T22:50:59.574Z,24.55
2022-10-30T22:53:26.847Z,20.73
2022-10-30T22:55:53.383Z,20.45
2022-10-30T22:58:20.145Z,23.52
2022-10-30T23:00:46.777Z,25.33
2022-10-30T23:03:13.246Z,21.45
2022-10-30T23:05:39.799Z,22.02
2022-10-30T23:08:06.187Z,20.33
2022-10-30T23:10:32.521Z,23.08
2022-10-30T23:12:59.118Z,25.25
2022-10-30T23:15:25.768Z,22.42
2022-10-30T23:17:52.080Z,19.48
2022-10-30T23:20:18.441Z,23.85
2022-10-30T23:22:44.795Z,19.50
2022-10-30T23:25:13.637Z,19.35
2022-10-30T23:27:40.001Z,19.95
2022-10-30T23:30:06.825Z,23.92
2022-10-30T23:32:33.141Z,19.00
2022-10-30T23:34:59.489Z,20.08
2022-10-30T23:37:25.815Z,20.83
2022-10-30T23:39:52.220Z,25.33
2022-10-30T23:42:18.606Z,17.17
2022-10-30T23:44:44.895Z,17.30
2022-10-30T23:47:11.213Z,19.65
2022-10-30T23:49:37.607Z,16.70
2022-10-30T23:52:04.021Z,17.85
2022-10-30T23:54:30.430Z,17.35
2022-10-30T23:56:56.783Z,13.82
2022-10-30T23:59:23.191Z,18.85
